Time;durP1;ratioP1;P1;durP2;ratioP2;P2;SDS_P1;SDS_P2;PMS_P1;PMS_P2;Temp;Humidity;BMP_temperature;BMP_pressure;BME280_temperature;BME280_humidity;BME280_pressure;Samples;Min_cycle;Max_cycle;Signal;HPM_P1;HPM_P2
2022/05/09 00:01:18;;;;;;;5.53;2.08;;;;;;;10.29;51.02;95250.59;5073419;28;20035;-67
2022/05/09 00:03:44;;;;;;;4.35;2.70;;;;;;;10.19;51.34;95243.56;5091574;28;20073;-67
2022/05/09 00:06:10;;;;;;;3.78;2.53;;;;;;;10.07;52.01;95234.94;5083806;28;20033;-67
2022/05/09 00:08:35;;;;;;;4.40;2.55;;;;;;;9.90;52.55;95235.38;5036598;28;20497;-67
2022/05/09 00:11:01;;;;;;;4.78;2.58;;;;;;;9.86;53.08;95252.91;5052950;28;20040;-67
2022/05/09 00:13:26;;;;;;;6.90;2.50;;;;;;;9.77;52.90;95238.84;5053231;28;20467;-67
2022/05/09 00:15:51;;;;;;;2.90;2.45;;;;;;;9.69;53.85;95241.16;5071312;28;20536;-67
2022/05/09 00:18:19;;;;;;;4.95;2.55;;;;;;;9.51;53.95;95232.94;5071033;28;20020;-67
2022/05/09 00:20:45;;;;;;;3.78;2.88;;;;;;;9.56;54.32;95236.03;5053611;28;20414;-67
2022/05/09 00:23:10;;;;;;;6.10;2.78;;;;;;;9.42;54.64;95232.75;5071053;28;20020;-67
2022/05/09 00:25:36;;;;;;;4.45;2.90;;;;;;;9.34;55.02;95239.34;5067262;28;20117;-67
2022/05/09 00:28:01;;;;;;;5.22;3.10;;;;;;;9.27;55.38;95230.34;5073093;28;20452;-67
2022/05/09 00:30:26;;;;;;;3.75;2.88;;;;;;;9.36;55.33;95236.63;5089202;28;20040;-67
2022/05/09 00:32:52;;;;;;;4.75;2.95;;;;;;;9.37;55.23;95230.53;5056475;28;20031;-67
2022/05/09 00:35:17;;;;;;;5.70;3.30;;;;;;;9.38;55.48;95243.38;5072973;28;20036;-67
2022/05/09 00:37:43;;;;;;;4.28;3.13;;;;;;;9.33;55.86;95239.44;5072968;28;20031;-66
2022/05/09 00:40:10;;;;;;;4.28;3.22;;;;;;;9.37;55.63;95246.06;5071014;28;20028;-67
2022/05/09 00:42:36;;;;;;;4.85;3.28;;;;;;;9.42;55.51;95253.50;5033092;28;20064;-67
2022/05/09 00:45:03;;;;;;;4.82;3.58;;;;;;;9.44;55.23;95246.47;5064598;28;20108;-67
2022/05/09 00:47:28;;;;;;;4.10;3.05;;;;;;;9.52;55.04;95254.53;5072792;28;20031;-67
2022/05/09 00:49:56;;;;;;;5.53;2.75;;;;;;;9.58;54.51;95257.53;5089151;28;20028;-67
2022/05/09 00:52:51;;;;;;;4.18;3.22;;;;;;;9.62;55.10;95260.72;5066439;28;20028;-67
2022/05/09 00:55:23;;;;;;;5.07;3.63;;;;;;;9.62;55.46;95266.72;5032495;28;20053;-67
2022/05/09 00:57:57;;;;;;;4.45;3.67;;;;;;;9.65;55.40;95262.25;5032922;28;20029;-67
2022/05/09 01:00:23;;;;;;;4.32;3.30;;;;;;;9.60;55.47;95268.59;5017414;28;20063;-67
2022/05/09 01:03:13;;;;;;;3.75;3.22;;;;;;;9.55;54.76;95272.47;5032807;28;20100;-67
2022/05/09 01:05:41;;;;;;;3.50;2.90;;;;;;;9.56;54.59;95266.34;4996239;28;20041;-67
2022/05/09 01:08:06;;;;;;;4.75;3.38;;;;;;;9.58;54.69;95260.13;5070180;28;20321;-67
2022/05/09 01:10:33;;;;;;;5.85;3.55;;;;;;;9.57;54.79;95260.22;5052439;28;20482;-67
2022/05/09 01:13:09;;;;;;;6.63;3.55;;;;;;;9.64;54.81;95253.66;5036108;28;20028;-66
2022/05/09 01:15:35;;;;;;;7.88;3.67;;;;;;;9.68;54.60;95247.28;5052374;28;20040;-67
2022/05/09 01:18:00;;;;;;;6.30;3.42;;;;;;;9.64;54.84;95264.03;5055936;28;20133;-67
2022/05/09 01:20:26;;;;;;;4.80;3.63;;;;;;;9.55;54.83;95255.13;5039511;28;20040;-67
2022/05/09 01:22:56;;;;;;;4.85;3.35;;;;;;;9.50;55.39;95254.66;5056207;28;20029;-67
2022/05/09 01:25:21;;;;;;;4.88;3.63;;;;;;;9.40;55.50;95256.22;5074116;28;20112;-67
2022/05/09 01:27:47;;;;;;;3.95;3.55;;;;;;;9.30;55.63;95256.03;5074248;28;20047;-67
2022/05/09 01:30:18;;;;;;;8.23;3.88;;;;;;;9.25;56.15;95252.97;5074238;28;20054;-67
2022/05/09 01:32:50;;;;;;;6.13;3.65;;;;;;;9.11;56.46;95258.28;5056162;28;20031;-67
2022/05/09 01:35:17;;;;;;;;;;;;;;;9.07;56.48;95256.84;5056713;28;20269;-67
2022/05/09 01:37:44;;;;;;;6.50;3.63;;;;;;;8.78;57.50;95262.28;5072961;28;19916;-67
2022/05/09 01:40:10;;;;;;;4.28;3.55;;;;;;;8.74;57.46;95263.41;5039279;28;20048;-67
2022/05/09 01:42:36;;;;;;;5.97;3.20;;;;;;;8.82;57.17;95266.31;5056207;28;20024;-67
2022/05/09 01:45:02;;;;;;;6.43;3.67;;;;;;;8.87;57.05;95251.28;5039092;28;20162;-67
2022/05/09 01:50:12;;;;;;;5.05;3.60;;;;;;;8.89;56.83;95262.38;5058796;28;20074;-67
2022/05/09 01:52:39;;;;;;;4.43;3.30;;;;;;;8.89;56.76;95262.38;5072852;28;20028;-67
2022/05/09 01:55:05;;;;;;;5.63;3.40;;;;;;;8.95;56.79;95266.31;5059619;28;20132;-67
2022/05/09 01:57:30;;;;;;;4.60;3.28;;;;;;;8.86;56.81;95261.72;5071745;28;20028;-67
2022/05/09 01:59:56;;;;;;;6.00;3.60;;;;;;;8.83;57.07;95270.56;5055699;28;20028;-67
2022/05/09 02:02:23;;;;;;;4.63;3.28;;;;;;;8.83;56.86;95267.97;5039018;28;20032;-67
2022/05/09 02:04:48;;;;;;;4.55;3.55;;;;;;;8.78;56.86;95259.69;5055841;28;20059;-67
2022/05/09 02:07:15;;;;;;;3.80;3.15;;;;;;;8.72;57.06;95271.31;5073100;28;20037;-67
2022/05/09 02:09:45;;;;;;;6.55;3.95;;;;;;;8.70;57.38;95257.63;5055562;28;20028;-67
2022/05/09 02:12:11;;;;;;;4.85;3.65;;;;;;;8.75;57.20;95259.06;5071873;28;20032;-66
2022/05/09 02:14:37;;;;;;;5.47;3.58;;;;;;;8.61;57.89;95265.16;5072084;28;20029;-67
2022/05/09 02:17:02;;;;;;;6.20;3.15;;;;;;;8.61;57.74;95265.16;5055667;28;20043;-68
2022/05/09 02:19:28;;;;;;;6.47;3.65;;;;;;;8.53;57.92;95264.88;5055252;28;20028;-67
2022/05/09 02:21:53;;;;;;;4.85;3.28;;;;;;;8.65;57.58;95277.00;5060618;28;20063;-67
2022/05/09 02:24:19;;;;;;;5.28;3.40;;;;;;;8.62;57.90;95275.44;5073207;28;20033;-67
2022/05/09 02:26:44;;;;;;;4.20;3.35;;;;;;;8.55;58.10;95273.38;5056088;28;20059;-67
2022/05/09 02:29:10;;;;;;;4.72;3.17;;;;;;;8.56;58.23;95275.03;5037579;28;20513;-67
2022/05/09 02:31:35;;;;;;;4.60;3.60;;;;;;;8.57;58.10;95289.63;5038687;28;20028;-67
2022/05/09 02:34:01;;;;;;;4.28;3.45;;;;;;;8.61;58.03;95288.47;5072504;28;20021;-67
2022/05/09 02:36:27;;;;;;;5.72;3.70;;;;;;;8.60;58.36;95284.25;5071864;28;20036;-67
2022/05/09 02:38:53;;;;;;;6.63;3.90;;;;;;;8.50;58.14;95282.28;5055131;28;20021;-67
2022/05/09 02:41:18;;;;;;;3.80;3.38;;;;;;;8.56;58.49;95282.81;5054717;28;20513;-67
2022/05/09 02:43:43;;;;;;;5.75;3.40;;;;;;;8.50;58.11;95282.28;5072531;28;20452;-67
2022/05/09 02:46:09;;;;;;;4.32;3.92;;;;;;;8.57;58.24;95280.09;5055162;28;20710;-67
2022/05/09 02:48:35;;;;;;;4.47;3.45;;;;;;;8.52;58.54;95283.94;5054781;28;20033;-66
2022/05/09 02:51:01;;;;;;;4.97;3.58;;;;;;;8.48;58.93;95281.56;5046206;28;20513;-67
2022/05/09 02:53:26;;;;;;;5.32;3.80;;;;;;;8.31;59.20;95288.75;5054936;28;20036;-67
2022/05/09 02:55:52;;;;;;;4.90;4.07;;;;;;;8.29;59.21;95284.50;5053830;28;20076;-67
2022/05/09 02:58:17;;;;;;;5.00;3.53;;;;;;;8.20;59.31;95286.88;5072130;28;20036;-67
2022/05/09 03:00:42;;;;;;;5.32;3.83;;;;;;;8.19;59.59;95287.78;5054672;28;20094;-67
2022/05/09 03:05:52;;;;;;;5.00;3.70;;;;;;;8.27;60.00;95298.47;5063758;28;20539;-67
2022/05/09 03:08:18;;;;;;;4.60;3.53;;;;;;;8.30;59.39;95298.25;5072054;28;20028;-66
2022/05/09 03:10:43;;;;;;;7.07;3.60;;;;;;;8.29;59.53;95299.22;5037815;28;20047;-66
2022/05/09 03:13:10;;;;;;;4.65;3.80;;;;;;;8.24;59.37;95302.09;5054301;28;20024;-68
2022/05/09 03:15:38;;;;;;;5.97;3.65;;;;;;;8.24;59.80;95307.25;5054255;28;20037;-67
2022/05/09 03:18:04;;;;;;;4.90;3.63;;;;;;;8.26;59.62;95314.94;5069751;28;20029;-67
2022/05/09 03:20:30;;;;;;;4.07;3.67;;;;;;;8.22;60.12;95309.16;5059671;28;20745;-67
2022/05/09 03:22:55;;;;;;;5.18;3.78;;;;;;;8.16;60.30;95316.47;5037391;28;20192;-67
2022/05/09 03:25:20;;;;;;;4.18;3.60;;;;;;;8.20;60.09;95325.69;5072096;28;20028;-67
2022/05/09 03:27:46;;;;;;;5.15;3.30;;;;;;;8.23;60.06;95322.91;5039016;28;20119;-67
2022/05/09 03:30:12;;;;;;;4.22;3.78;;;;;;;8.16;60.41;95325.09;5070452;28;20040;-67
2022/05/09 03:32:39;;;;;;;4.65;3.72;;;;;;;8.14;60.21;95326.94;5070916;28;20090;-67
2022/05/09 03:35:05;;;;;;;4.55;3.83;;;;;;;8.03;60.60;95317.28;5054244;28;20037;-67
2022/05/09 03:37:30;;;;;;;4.80;4.05;;;;;;;7.90;60.85;95321.56;5053658;28;20031;-67
2022/05/09 03:39:56;;;;;;;5.43;3.67;;;;;;;7.94;60.92;95319.59;5063640;28;20032;-67
2022/05/09 03:42:21;;;;;;;5.10;3.80;;;;;;;7.86;61.36;95317.53;5053467;28;20482;-67
2022/05/09 03:44:47;;;;;;;4.88;4.07;;;;;;;7.83;61.69;95312.56;5071591;28;20111;-67
2022/05/09 03:47:13;;;;;;;5.25;3.92;;;;;;;7.87;61.47;95315.78;5053381;28;20054;-67
2022/05/09 03:49:38;;;;;;;4.68;3.70;;;;;;;7.83;61.62;95313.38;5070961;28;20478;-67
2022/05/09 03:52:04;;;;;;;6.15;3.80;;;;;;;7.77;61.60;95307.75;5020733;28;20044;-66
2022/05/09 03:54:29;;;;;;;5.03;4.15;;;;;;;7.72;61.80;95295.13;5071404;28;20028;-68
2022/05/09 03:56:55;;;;;;;5.82;3.72;;;;;;;7.96;61.16;95313.41;5071371;28;20484;-67
2022/05/09 03:59:20;;;;;;;7.65;4.20;;;;;;;7.92;61.96;95306.78;5053203;28;20550;-67
2022/05/09 04:01:46;;;;;;;5.00;4.03;;;;;;;7.99;61.67;95318.38;5071744;28;20102;-67
2022/05/09 04:04:11;;;;;;;3.90;3.50;;;;;;;7.98;61.83;95321.91;5070857;28;20032;-68
2022/05/09 04:06:37;;;;;;;6.05;3.67;;;;;;;8.32;61.02;95317.13;5036856;28;20106;-67
2022/05/09 04:09:02;;;;;;;4.70;4.18;;;;;;;8.64;59.63;95309.84;5036257;28;20035;-68
2022/05/09 04:11:28;;;;;;;4.15;3.65;;;;;;;8.85;59.09;95302.38;5052662;28;20538;-67
2022/05/09 04:13:53;;;;;;;3.97;3.35;;;;;;;9.43;57.34;95317.44;5035011;28;20028;-67
2022/05/09 04:19:02;;;;;;;4.47;3.53;;;;;;;10.23;54.68;95310.75;5041927;28;20035;-67
2022/05/09 04:21:28;;;;;;;4.90;3.55;;;;;;;10.59;53.89;95302.97;5053315;28;20032;-67
2022/05/09 04:23:58;;;;;;;5.18;3.67;;;;;;;11.39;51.64;95310.69;5035397;28;20085;-67
2022/05/09 04:26:26;;;;;;;5.28;3.65;;;;;;;11.96;50.15;95306.22;5038102;28;20033;-68
2022/05/09 04:28:52;;;;;;;5.05;3.50;;;;;;;12.39;48.93;95308.75;5036249;28;20160;-68
2022/05/09 04:31:19;;;;;;;5.47;3.58;;;;;;;12.90;48.06;95320.22;5053133;28;20055;-67
2022/05/09 04:33:45;;;;;;;4.70;2.92;;;;;;;13.36;46.89;95319.75;5070859;28;20557;-67
2022/05/09 04:36:11;;;;;;;3.70;3.03;;;;;;;13.91;45.74;95310.72;5052091;28;20112;-67
2022/05/09 04:38:39;;;;;;;5.78;3.00;;;;;;;14.53;44.92;95314.72;5052869;28;20504;-67
2022/05/09 04:41:04;;;;;;;5.35;3.63;;;;;;;15.11;43.82;95327.69;5071049;28;20052;-68
2022/05/09 04:43:31;;;;;;;11.43;4.75;;;;;;;15.65;42.55;95331.34;5052504;28;20108;-68
2022/05/09 04:46:00;;;;;;;11.32;4.95;;;;;;;16.14;41.56;95333.72;5070917;28;20178;-67
2022/05/09 04:48:25;;;;;;;7.95;4.28;;;;;;;16.55;40.52;95334.09;5035513;28;20074;-68
2022/05/09 04:50:51;;;;;;;12.07;5.25;;;;;;;16.72;40.19;95332.44;5032696;28;20037;-67
2022/05/09 04:53:19;;;;;;;12.27;4.78;;;;;;;16.88;39.76;95329.13;5069329;28;20031;-68
2022/05/09 04:55:44;;;;;;;12.77;4.85;;;;;;;16.64;40.58;95338.44;5065498;28;20053;-69
2022/05/09 04:58:12;;;;;;;9.77;4.50;;;;;;;16.36;41.26;95332.47;5028934;28;20029;-65
2022/05/09 05:00:38;;;;;;;7.90;3.65;;;;;;;16.22;41.20;95331.19;5064272;28;20044;-68
2022/05/09 05:03:03;;;;;;;6.10;3.03;;;;;;;16.08;41.08;95329.88;5028698;28;20033;-68
2022/05/09 05:05:29;;;;;;;8.38;3.42;;;;;;;15.82;41.68;95340.25;5033739;28;20028;-67
2022/05/09 05:07:54;;;;;;;7.43;3.88;;;;;;;15.71;42.35;95337.00;5048322;28;20029;-67
2022/05/09 05:10:20;;;;;;;8.80;4.28;;;;;;;15.62;43.30;95339.47;5031391;28;20025;-68
2022/05/09 05:12:45;;;;;;;6.97;3.80;;;;;;;15.70;42.49;95338.78;5050183;28;20028;-69
2022/05/09 05:15:11;;;;;;;5.82;3.50;;;;;;;15.55;42.59;95332.38;5036124;28;20430;-68
2022/05/09 05:17:36;;;;;;;9.05;3.97;;;;;;;15.53;43.04;95340.38;5047648;28;20516;-67
2022/05/09 05:20:04;;;;;;;5.45;3.70;;;;;;;15.48;42.83;95337.34;5066704;28;20163;-68
2022/05/09 05:22:30;;;;;;;7.60;3.42;;;;;;;15.20;43.35;95334.69;5060510;28;20174;-68
2022/05/09 05:24:55;;;;;;;6.63;3.65;;;;;;;15.24;43.53;95337.88;5048493;28;20044;-67
2022/05/09 05:27:21;;;;;;;4.75;3.00;;;;;;;15.22;42.97;95331.13;5049302;28;20025;-64
2022/05/09 05:29:49;;;;;;;6.03;3.13;;;;;;;15.32;43.43;95332.75;5019828;28;20033;-67
2022/05/09 05:32:19;;;;;;;4.95;3.42;;;;;;;15.34;43.30;95330.78;5035186;28;20084;-67
2022/05/09 05:34:45;;;;;;;5.10;3.00;;;;;;;15.30;43.21;95336.47;5029583;28;20438;-67
2022/05/09 05:37:10;;;;;;;7.45;3.53;;;;;;;15.27;43.39;95329.72;5059899;28;20033;-67
2022/05/09 05:39:37;;;;;;;6.10;3.15;;;;;;;15.12;43.78;95329.34;5055689;28;20403;-66
2022/05/09 05:42:06;;;;;;;7.72;3.47;;;;;;;15.08;44.18;95335.84;5067017;28;20040;-67
2022/05/09 05:44:32;;;;;;;4.15;3.25;;;;;;;15.12;44.25;95329.34;5032423;28;20033;-67
2022/05/09 05:46:57;;;;;;;5.85;3.72;;;;;;;15.18;44.52;95335.78;5034036;28;20472;-67
2022/05/09 05:49:22;;;;;;;7.97;3.75;;;;;;;15.25;44.46;95331.66;5017392;28;20024;-66
2022/05/09 05:51:48;;;;;;;6.50;3.30;;;;;;;15.21;44.44;95340.78;5066013;28;20024;-67
2022/05/09 05:54:13;;;;;;;5.65;3.47;;;;;;;15.30;44.32;95339.09;5032345;28;20414;-66
2022/05/09 05:56:39;;;;;;;8.77;4.32;;;;;;;15.29;43.96;95334.81;5048994;28;20059;-67
2022/05/09 05:59:04;;;;;;;7.10;3.15;;;;;;;15.25;44.39;95336.06;5050039;28;20050;-67
2022/05/09 06:01:30;;;;;;;5.53;3.30;;;;;;;15.29;44.27;95333.00;5013762;28;20044;-66
2022/05/09 06:03:55;;;;;;;4.28;3.22;;;;;;;15.24;44.33;95342.25;5032280;28;20031;-69
2022/05/09 06:06:21;;;;;;;6.95;3.47;;;;;;;15.22;44.33;95338.97;5072846;28;20056;-67
2022/05/09 06:08:48;;;;;;;6.68;3.17;;;;;;;15.01;44.33;95329.50;5051218;28;20043;-67
2022/05/09 06:11:13;;;;;;;10.38;3.50;;;;;;;14.98;45.02;95340.25;5051384;28;20035;-65
2022/05/09 06:13:39;;;;;;;5.45;3.20;;;;;;;15.04;44.97;95333.63;5062024;28;20029;-68
2022/05/09 06:16:05;;;;;;;7.32;3.47;;;;;;;15.11;45.12;95335.56;5071596;28;20059;-67
2022/05/09 06:18:31;;;;;;;5.07;3.00;;;;;;;15.14;45.00;95334.44;5062562;28;20526;-67
2022/05/09 06:20:56;;;;;;;6.93;3.50;;;;;;;15.27;45.31;95329.72;5051496;28;20171;-67
2022/05/09 06:23:22;;;;;;;5.40;3.75;;;;;;;15.25;44.92;95333.44;5053781;28;20410;-68
2022/05/09 06:25:48;;;;;;;6.50;3.25;;;;;;;15.38;44.61;95344.44;5053550;28;20397;-68
2022/05/09 06:28:15;;;;;;;5.50;2.97;;;;;;;15.48;44.92;95345.19;5034083;28;20039;-68
2022/05/09 06:30:41;;;;;;;5.38;3.13;;;;;;;15.57;44.58;95346.13;5045573;28;20033;-70
2022/05/09 06:33:06;;;;;;;4.43;3.17;;;;;;;15.59;44.29;95336.34;5031963;28;20098;-72
2022/05/09 06:35:32;;;;;;;6.90;3.47;;;;;;;15.79;44.42;95344.94;5029856;28;20489;-68
2022/05/09 06:37:59;;;;;;;6.63;3.30;;;;;;;15.85;43.55;95339.13;5044537;28;20410;-68
2022/05/09 06:40:26;;;;;;;6.75;3.17;;;;;;;15.93;44.06;95335.78;5049198;28;20503;-67
2022/05/09 06:42:54;;;;;;;5.93;3.53;;;;;;;15.96;44.38;95340.72;5019448;28;20032;-68
2022/05/09 06:45:20;;;;;;;7.70;3.55;;;;;;;16.09;43.72;95331.53;5054808;28;20530;-68
2022/05/09 06:47:49;;;;;;;5.85;3.10;;;;;;;16.17;43.79;95343.91;5031755;28;20020;-70
2022/05/09 06:50:15;;;;;;;9.23;3.40;;;;;;;16.22;44.04;95338.22;5065744;28;20048;-68
2022/05/09 06:52:42;;;;;;;7.07;3.25;;;;;;;16.39;43.62;95347.06;5054021;28;20020;-68
2022/05/09 06:55:08;;;;;;;6.28;3.42;;;;;;;16.61;43.46;95341.34;5053753;28;20421;-68
2022/05/09 06:57:37;;;;;;;7.80;3.72;;;;;;;16.77;42.72;95334.63;5051189;28;20153;-68
2022/05/09 07:00:04;;;;;;;8.02;3.33;;;;;;;16.89;42.17;95339.47;5046811;28;20122;-68
2022/05/09 07:02:31;;;;;;;7.10;3.25;;;;;;;16.90;42.44;95330.63;5051744;28;20055;-66
2022/05/09 07:04:56;;;;;;;4.07;3.03;;;;;;;17.07;41.62;95339.41;5067352;28;20028;-66
2022/05/09 07:07:21;;;;;;;5.88;3.22;;;;;;;17.19;40.69;95334.75;5054347;28;20020;-66
2022/05/09 07:09:47;;;;;;;7.55;2.90;;;;;;;17.28;41.20;95338.25;5050213;28;20032;-66
2022/05/09 07:12:12;;;;;;;6.20;3.08;;;;;;;17.43;41.26;95336.69;5071409;28;20033;-66
2022/05/09 07:14:38;;;;;;;6.32;2.90;;;;;;;17.52;40.69;95332.28;5063387;28;20448;-66
2022/05/09 07:17:04;;;;;;;7.97;3.50;;;;;;;17.72;40.57;95335.50;5052793;28;20461;-66
2022/05/09 07:19:31;;;;;;;4.43;2.97;;;;;;;17.71;40.25;95329.41;5072041;28;20029;-68
2022/05/09 07:21:57;;;;;;;4.57;3.00;;;;;;;18.01;40.55;95324.63;5067294;28;20044;-67
2022/05/09 07:24:22;;;;;;;7.07;2.80;;;;;;;18.21;38.57;95320.72;5068736;28;20032;-67
2022/05/09 07:26:47;;;;;;;5.35;2.60;;;;;;;18.36;38.11;95328.81;5031938;28;20048;-67
2022/05/09 07:29:13;;;;;;;5.88;2.65;;;;;;;18.34;38.14;95327.34;5054204;28;20036;-67
2022/05/09 07:31:38;;;;;;;5.20;3.00;;;;;;;17.99;38.57;95324.78;5046619;28;20457;-68
2022/05/09 07:34:04;;;;;;;5.53;2.70;;;;;;;18.26;37.72;95321.06;5059446;28;20486;-68
2022/05/09 07:36:33;;;;;;;6.72;2.65;;;;;;;18.43;37.27;95321.91;5065679;28;20162;-68
2022/05/09 07:39:02;;;;;;;6.47;2.95;;;;;;;18.70;37.58;95315.50;5057101;28;20106;-68
2022/05/09 07:41:27;;;;;;;6.15;2.92;;;;;;;18.92;38.24;95321.13;5052017;28;20087;-67
2022/05/09 07:43:53;;;;;;;6.57;3.10;;;;;;;19.08;37.01;95328.97;5064515;28;20035;-67
2022/05/09 07:46:18;;;;;;;7.85;3.38;;;;;;;19.11;38.12;95323.41;5052391;28;20028;-68
2022/05/09 07:48:44;;;;;;;4.70;2.80;;;;;;;19.33;36.11;95321.03;5049139;28;20085;-68
2022/05/09 07:51:09;;;;;;;6.53;3.05;;;;;;;19.49;35.98;95321.00;5049346;28;20033;-68
2022/05/09 07:53:35;;;;;;;5.82;2.88;;;;;;;19.59;36.05;95326.91;5064099;28;20029;-68
2022/05/09 07:56:02;;;;;;;5.30;2.47;;;;;;;19.61;33.49;95310.91;5065724;28;20076;-68
2022/05/09 07:58:30;;;;;;;6.30;2.17;;;;;;;19.70;32.25;95312.56;5068556;28;20473;-68
2022/05/09 08:00:58;;;;;;;3.30;2.10;;;;;;;19.85;33.63;95326.66;5051017;28;20072;-68
2022/05/09 08:03:24;;;;;;;3.70;2.22;;;;;;;20.02;33.11;95324.75;5050118;28;20024;-68
2022/05/09 08:05:50;;;;;;;4.85;2.30;;;;;;;20.05;31.93;95329.69;5034637;28;20470;-68
2022/05/09 08:08:15;;;;;;;3.85;1.90;;;;;;;20.14;33.33;95327.00;5044523;28;20027;-67
2022/05/09 08:10:42;;;;;;;3.97;2.35;;;;;;;20.24;32.83;95327.63;5052100;28;20515;-68
2022/05/09 08:13:07;;;;;;;6.72;2.30;;;;;;;20.35;33.12;95316.66;5049314;28;20032;-68
2022/05/09 08:15:34;;;;;;;3.22;2.30;;;;;;;20.52;33.27;95327.91;5052309;28;20048;-67
2022/05/09 08:18:01;;;;;;;6.03;2.20;;;;;;;20.67;32.54;95322.72;5048302;28;20024;-68
2022/05/09 08:20:26;;;;;;;3.75;1.90;;;;;;;20.72;31.49;95323.00;5051882;28;20036;-67
2022/05/09 08:23:06;;;;;;;5.50;1.92;;;;;;;20.64;31.11;95325.72;5050310;28;20029;-70
2022/05/09 08:25:34;;;;;;;3.55;2.00;;;;;;;20.73;31.19;95325.50;5034881;28;20401;-67
2022/05/09 08:28:01;;;;;;;3.25;1.80;;;;;;;20.82;30.99;95323.59;5065559;28;20422;-67
2022/05/09 08:30:32;;;;;;;3.60;1.95;;;;;;;20.87;30.56;95315.16;5064440;28;20464;-66
2022/05/09 08:32:57;;;;;;;;;;;;;;;20.93;31.32;95320.53;5071110;28;20021;-66
2022/05/09 08:35:23;;;;;;;3.50;1.98;;;;;;;20.79;30.00;95318.69;5064205;28;20396;-66
2022/05/09 08:37:48;;;;;;;5.07;2.00;;;;;;;20.68;30.47;95322.56;5070293;28;20021;-66
2022/05/09 08:40:15;;;;;;;3.92;2.20;;;;;;;20.74;31.87;95321.03;5057895;28;20514;-66
2022/05/09 08:42:48;;;;;;;4.68;2.33;;;;;;;20.90;30.61;95322.72;5063228;28;20031;-66
2022/05/09 08:45:19;;;;;;;4.10;2.15;;;;;;;21.05;31.25;95313.00;5042635;28;20033;-66
2022/05/09 08:47:59;;;;;;;4.82;2.10;;;;;;;21.14;30.39;95317.19;5069347;28;20028;-67
2022/05/09 08:50:49;;;;;;;5.68;2.35;;;;;;;21.22;31.34;95321.56;5040032;28;20032;-66
2022/05/09 08:53:19;;;;;;;6.13;2.30;;;;;;;21.32;30.45;95318.69;5050824;28;20036;-67
2022/05/09 08:55:44;;;;;;;4.47;2.10;;;;;;;21.26;30.20;95324.69;5042607;28;20080;-67
2022/05/09 08:58:39;;;;;;;4.05;1.83;;;;;;;21.14;29.49;95316.38;5015000;28;20486;-67
2022/05/09 09:01:14;;;;;;;6.20;1.90;;;;;;;21.14;30.07;95316.38;5049207;28;20075;-67
2022/05/09 09:03:40;;;;;;;4.75;1.95;;;;;;;21.17;30.06;95311.56;5055135;28;20028;-67
2022/05/09 09:06:30;;;;;;;3.10;2.05;;;;;;;21.19;30.41;95314.81;5049254;28;20062;-67
2022/05/09 09:09:14;;;;;;;3.17;1.92;;;;;;;21.37;31.17;95306.59;5045298;28;20067;-67
2022/05/09 09:11:58;;;;;;;4.80;2.10;;;;;;;21.40;29.36;95316.00;5069158;28;20086;-67
2022/05/09 09:14:42;;;;;;;5.18;2.00;;;;;;;21.51;29.35;95310.25;5056314;28;20592;-66
2022/05/09 09:17:46;;;;;;;4.28;1.80;;;;;;;21.28;28.13;95306.81;5033354;28;20037;-66
2022/05/09 09:20:17;;;;;;;4.47;1.80;;;;;;;21.30;26.97;95308.28;4977662;28;20046;-67
2022/05/09 09:23:14;;;;;;;3.78;1.83;;;;;;;21.34;26.34;95301.66;5069088;28;20024;-69
2022/05/09 09:25:54;;;;;;;3.58;1.30;;;;;;;21.41;24.79;95302.59;5047408;28;20029;-67
2022/05/09 09:28:36;;;;;;;2.38;1.40;;;;;;;21.53;22.80;95299.47;5053070;28;20016;-67
2022/05/09 09:31:04;;;;;;;4.95;1.60;;;;;;;21.66;24.97;95304.13;5038217;28;20041;-66
2022/05/09 09:33:30;;;;;;;2.80;1.50;;;;;;;21.71;25.84;95299.13;5017254;28;20099;-66
2022/05/09 09:35:56;;;;;;;4.38;1.90;;;;;;;21.74;25.48;95294.28;5026000;28;20510;-65
2022/05/09 09:38:58;;;;;;;4.00;1.60;;;;;;;21.83;25.49;95295.81;5037684;28;20387;-67
2022/05/09 09:41:30;;;;;;;3.22;1.45;;;;;;;21.78;23.96;95284.97;5021066;28;20041;-67
2022/05/09 09:44:20;;;;;;;2.95;1.60;;;;;;;21.67;23.51;95290.72;5034898;28;20032;-66
2022/05/09 09:47:19;;;;;;;4.82;1.50;;;;;;;21.62;25.25;95290.47;5054363;28;20036;-67
2022/05/09 09:49:49;;;;;;;5.75;1.80;;;;;;;21.36;24.60;95281.13;5050483;28;20450;-66
2022/05/09 09:52:23;;;;;;;4.88;1.60;;;;;;;21.37;25.98;95280.19;5019408;28;20124;-67
2022/05/09 09:55:05;;;;;;;2.75;1.60;;;;;;;21.51;24.76;95283.81;5048686;28;20039;-67
2022/05/09 09:57:35;;;;;;;3.95;1.50;;;;;;;21.51;24.83;95281.19;5056776;28;20519;-67
2022/05/09 10:00:23;;;;;;;;;;;;;;;21.32;23.31;95286.97;5010076;28;20267;-67
2022/05/09 10:02:49;;;;;;;2.72;1.30;;;;;;;21.24;21.68;95276.50;5072731;28;19912;-67
2022/05/09 10:05:34;;;;;;;2.33;1.30;;;;;;;21.04;22.55;95279.66;5043185;28;20110;-67
2022/05/09 10:08:21;;;;;;;4.35;1.50;;;;;;;21.23;22.38;95275.69;5023291;28;20036;-67
2022/05/09 10:11:00;;;;;;;3.17;1.40;;;;;;;21.29;24.04;95277.59;5035925;28;20037;-68
2022/05/09 10:13:33;;;;;;;2.92;1.50;;;;;;;21.48;23.09;95280.69;5034998;28;20101;-68
2022/05/09 10:16:11;;;;;;;7.68;1.60;;;;;;;21.55;24.92;95278.97;5039800;28;20132;-68
2022/05/09 10:18:36;;;;;;;1.90;1.30;;;;;;;21.55;21.15;95276.34;5022797;28;20506;-68
2022/05/09 10:21:14;;;;;;;1.95;1.00;;;;;;;21.41;20.28;95270.88;5052786;28;20041;-68
2022/05/09 10:26:34;;;;;;;4.10;1.25;;;;;;;21.37;24.19;95272.25;5041620;28;20074;-68
2022/05/09 10:29:02;;;;;;;5.28;1.23;;;;;;;21.33;22.41;95272.75;5067099;28;20029;-68
2022/05/09 10:31:37;;;;;;;4.53;1.55;;;;;;;21.40;23.41;95271.88;5041972;28;20048;-68
2022/05/09 10:34:09;;;;;;;2.42;1.10;;;;;;;21.52;21.75;95271.41;5053441;28;20021;-68
2022/05/09 10:36:41;;;;;;;6.20;1.27;;;;;;;21.44;20.43;95267.03;5072782;28;20036;-68
2022/05/09 10:39:14;;;;;;;6.07;1.40;;;;;;;21.62;20.23;95271.97;5063308;28;20025;-69
2022/05/09 10:41:43;;;;;;;2.35;1.10;;;;;;;21.70;18.67;95261.25;5050505;28;20460;-68
2022/05/09 10:44:21;;;;;;;3.30;1.40;;;;;;;21.83;20.17;95255.31;5069725;28;20351;-68
2022/05/09 10:46:50;;;;;;;2.35;1.15;;;;;;;21.93;20.61;95249.75;5051238;28;20467;-68
2022/05/09 10:49:45;;;;;;;2.50;1.17;;;;;;;22.11;20.20;95252.78;5050505;28;20414;-68
2022/05/09 10:52:19;;;;;;;1.67;1.00;;;;;;;21.93;16.17;95245.28;5032458;28;20135;-68
2022/05/09 10:54:54;;;;;;;2.35;1.00;;;;;;;22.04;17.83;95246.63;5069337;28;20028;-68
2022/05/09 10:57:39;;;;;;;2.42;1.33;;;;;;;22.09;19.76;95249.50;5056095;28;20476;-68
2022/05/09 11:00:12;;;;;;;2.80;1.10;;;;;;;22.10;16.78;95245.88;5072795;28;20075;-69
2022/05/09 11:02:40;;;;;;;2.20;1.02;;;;;;;22.15;18.36;95248.78;5038679;28;20052;-68
2022/05/09 11:05:06;;;;;;;3.10;1.15;;;;;;;22.25;19.24;95235.25;5038361;28;20048;-68
2022/05/09 11:07:43;;;;;;;8.07;1.52;;;;;;;22.40;18.53;95240.47;5054575;28;20028;-68
2022/05/09 11:10:22;;;;;;;2.08;1.08;;;;;;;22.27;20.00;95230.59;5054400;28;20052;-68
2022/05/09 11:13:13;;;;;;;2.42;1.02;;;;;;;22.43;18.57;95237.47;5054572;28;20101;-68
2022/05/09 11:15:43;;;;;;;;;;;;;;;22.50;17.89;95233.03;5054996;28;20024;-68
2022/05/09 11:18:30;;;;;;;2.15;1.20;;;;;;;22.51;17.11;95235.50;5054494;28;20290;-68
2022/05/09 11:21:10;;;;;;;2.08;0.88;;;;;;;22.61;17.33;95235.16;5072474;28;20651;-68
2022/05/09 11:23:39;;;;;;;2.33;1.10;;;;;;;22.34;18.11;95226.16;5054186;28;20410;-68
2022/05/09 11:26:23;;;;;;;3.80;1.10;;;;;;;22.37;19.32;95223.16;5054224;28;20524;-68
2022/05/09 11:29:07;;;;;;;2.20;1.20;;;;;;;22.42;19.08;95225.22;5038941;28;20067;-68
2022/05/09 11:31:59;;;;;;;3.30;1.33;;;;;;;22.58;20.34;95224.16;5054439;28;20039;-68
2022/05/09 11:34:42;;;;;;;2.50;1.00;;;;;;;22.55;19.06;95217.41;5054043;28;20043;-68
2022/05/09 11:37:39;;;;;;;3.53;1.20;;;;;;;22.70;19.89;95212.00;5056350;28;20039;-68
2022/05/09 11:40:36;;;;;;;2.05;1.10;;;;;;;22.79;19.60;95216.16;5054088;28;20028;-69
2022/05/09 11:43:28;;;;;;;4.10;1.33;;;;;;;22.62;20.74;95207.69;5053950;28;20028;-68
2022/05/09 11:46:32;;;;;;;6.68;1.40;;;;;;;22.78;19.85;95209.22;5071920;28;20456;-68
2022/05/09 11:49:09;;;;;;;3.60;1.20;;;;;;;22.68;19.37;95204.28;4990156;28;20045;-68
2022/05/09 11:51:48;;;;;;;4.40;1.02;;;;;;;22.51;18.30;95203.75;5062837;28;20048;-68
2022/05/09 11:54:30;;;;;;;6.57;1.33;;;;;;;22.45;17.87;95208.97;5053725;28;20031;-69
2022/05/09 11:57:07;;;;;;;2.25;1.00;;;;;;;22.27;17.54;95198.84;5049687;28;20064;-68
2022/05/09 11:59:33;;;;;;;3.60;1.10;;;;;;;22.35;17.50;95200.53;5053888;28;20038;-68